Time;durP1;ratioP1;P1;durP2;ratioP2;P2;SDS_P1;SDS_P2;PMS_P1;PMS_P2;Temp;Humidity;BMP_temperature;BMP_pressure;BME280_temperature;BME280_humidity;BME280_pressure;Samples;Min_cycle;Max_cycle;Signal;HPM_P1;HPM_P2
2021/06/11 00:02:24;;;;;;;14.07;9.90;;;;;;;16.06;100.00;101936.75;3576946;39;20298;-66
2021/06/11 00:04:50;;;;;;;13.38;10.68;;;;;;;16.10;100.00;101932.72;3577971;39;20300;-65
2021/06/11 00:07:16;;;;;;;14.75;10.80;;;;;;;16.08;100.00;101937.44;3577643;39;20057;-65
2021/06/11 00:09:42;;;;;;;14.32;10.57;;;;;;;16.01;100.00;101930.88;3578085;39;20129;-65
2021/06/11 00:12:12;;;;;;;14.38;11.32;;;;;;;15.92;100.00;101932.59;3576962;39;20053;-66
2021/06/11 00:14:38;;;;;;;14.68;10.68;;;;;;;15.82;100.00;101942.63;3577107;39;20056;-66
2021/06/11 00:17:04;;;;;;;15.35;10.88;;;;;;;15.83;100.00;101935.34;3577166;40;20068;-65
2021/06/11 00:19:30;;;;;;;13.32;10.65;;;;;;;15.89;100.00;101948.34;3577989;39;20107;-65
2021/06/11 00:21:56;;;;;;;13.32;11.52;;;;;;;15.91;100.00;101938.19;3577456;40;20041;-64
2021/06/11 00:24:22;;;;;;;14.10;11.00;;;;;;;15.87;100.00;101942.19;3576729;39;20056;-65
2021/06/11 00:26:48;;;;;;;13.32;10.65;;;;;;;15.88;100.00;101939.31;3578660;39;20053;-65
2021/06/11 00:29:15;;;;;;;14.95;10.90;;;;;;;15.99;100.00;101943.75;3576869;39;20134;-66
2021/06/11 00:31:41;;;;;;;17.85;12.38;;;;;;;15.99;100.00;101942.88;3577202;39;20300;-66
2021/06/11 00:34:07;;;;;;;16.35;13.10;;;;;;;15.99;100.00;101951.91;3577503;40;20045;-66
2021/06/11 00:36:33;;;;;;;15.82;11.73;;;;;;;16.02;100.00;101946.19;3576339;39;20337;-66
2021/06/11 00:38:59;;;;;;;13.45;11.35;;;;;;;16.11;100.00;101950.72;3577409;40;20036;-66
2021/06/11 00:41:25;;;;;;;15.32;10.77;;;;;;;15.98;100.00;101958.31;3576280;39;20044;-66
2021/06/11 00:43:51;;;;;;;13.80;10.65;;;;;;;15.87;100.00;101963.91;3577503;39;20151;-65
2021/06/11 00:46:18;;;;;;;13.98;10.05;;;;;;;15.87;100.00;101959.34;3575910;39;20059;-66
2021/06/11 00:48:44;;;;;;;12.43;10.43;;;;;;;15.81;100.00;101959.06;3576696;40;20041;-66
2021/06/11 00:51:10;;;;;;;16.15;12.15;;;;;;;15.76;100.00;101957.59;3575798;40;20100;-65
2021/06/11 00:53:37;;;;;;;17.00;11.57;;;;;;;15.84;100.00;101959.63;3579083;39;20037;-66
2021/06/11 00:56:03;;;;;;;18.23;13.25;;;;;;;15.79;100.00;101955.63;3577389;39;20277;-65
2021/06/11 00:58:30;;;;;;;19.45;14.07;;;;;;;15.79;100.00;101956.47;3577553;39;20137;-66
2021/06/11 01:00:56;;;;;;;19.08;14.57;;;;;;;15.82;100.00;101944.50;3576576;39;20424;-65
2021/06/11 01:03:24;;;;;;;22.33;15.98;;;;;;;15.83;100.00;101948.94;3576022;40;20045;-66
2021/06/11 01:05:51;;;;;;;22.98;17.55;;;;;;;15.80;100.00;101951.91;3577280;40;20060;-66
2021/06/11 01:08:18;;;;;;;26.92;20.30;;;;;;;15.82;100.00;101948.06;3577738;39;20375;-66
2021/06/11 01:10:45;;;;;;;26.38;20.50;;;;;;;15.79;100.00;101955.63;3578439;39;20070;-66
2021/06/11 01:13:13;;;;;;;27.60;21.30;;;;;;;15.76;100.00;101945.88;3578067;39;20052;-66
2021/06/11 01:15:40;;;;;;;28.30;22.13;;;;;;;15.79;100.00;101958.34;3655464;22;20120;-65
2021/06/11 01:18:06;;;;;;;27.80;22.05;;;;;;;15.73;100.00;101957.03;3608946;39;20042;-65
2021/06/11 01:20:34;;;;;;;29.13;22.95;;;;;;;15.75;100.00;101955.91;3608068;39;20094;-66
2021/06/11 01:23:11;;;;;;;35.40;24.92;;;;;;;15.76;100.00;101952.16;3608404;39;20489;-66
2021/06/11 01:25:48;;;;;;;31.05;23.05;;;;;;;15.84;100.00;101953.34;3608349;39;20046;-66
2021/06/11 01:28:17;;;;;;;33.33;25.17;;;;;;;15.85;100.00;101950.47;3607887;39;20477;-65
2021/06/11 01:30:43;;;;;;;34.58;25.10;;;;;;;15.88;100.00;101954.75;3608465;39;20437;-65
2021/06/11 01:33:11;;;;;;;31.33;25.90;;;;;;;15.78;100.00;101954.75;3608445;39;20128;-65
2021/06/11 01:35:41;;;;;;;35.40;24.88;;;;;;;15.77;100.00;101948.44;3608384;39;20051;-66
2021/06/11 01:38:13;;;;;;;33.50;25.25;;;;;;;15.72;100.00;101958.91;3607932;39;20056;-66
2021/06/11 01:40:41;;;;;;;33.25;24.63;;;;;;;15.79;100.00;101956.47;3609581;39;20051;-65
2021/06/11 01:43:08;;;;;;;28.90;22.45;;;;;;;15.63;100.00;101948.88;3607918;39;20035;-65
2021/06/11 01:45:35;;;;;;;29.98;23.55;;;;;;;15.57;100.00;101952.16;3608001;39;20204;-65
2021/06/11 01:48:01;;;;;;;36.22;25.38;;;;;;;15.58;100.00;101948.47;3607659;39;20043;-65
2021/06/11 01:50:30;;;;;;;31.83;25.13;;;;;;;15.65;100.00;101948.72;3608672;39;20075;-66
2021/06/11 01:52:58;;;;;;;30.98;23.65;;;;;;;15.62;100.00;101947.19;3607850;39;20319;-65
2021/06/11 01:55:26;;;;;;;33.97;25.38;;;;;;;15.61;100.00;101948.19;3607596;39;20055;-65
2021/06/11 01:57:53;;;;;;;36.83;26.85;;;;;;;15.50;100.00;101942.88;3607767;39;20055;-65
2021/06/11 02:00:20;;;;;;;39.88;28.63;;;;;;;15.37;100.00;101935.88;3607328;39;20053;-65
2021/06/11 02:02:47;;;;;;;40.33;28.25;;;;;;;15.47;100.00;101944.00;3607971;39;20070;-65
2021/06/11 02:05:15;;;;;;;41.83;29.70;;;;;;;15.49;100.00;101947.47;3607851;39;20051;-66
2021/06/11 02:07:43;;;;;;;41.70;29.83;;;;;;;15.35;100.00;101943.28;3607616;39;20064;-65
2021/06/11 02:10:11;;;;;;;39.67;26.58;;;;;;;15.48;100.00;101943.03;3607179;39;20060;-65
2021/06/11 02:12:37;;;;;;;38.75;26.27;;;;;;;15.53;100.00;101931.72;3607582;39;20398;-66
2021/06/11 02:15:06;;;;;;;41.05;29.17;;;;;;;15.45;100.00;101931.59;3607923;39;20087;-66
2021/06/11 02:17:35;;;;;;;;;;;;;;;15.36;100.00;101922.47;3608893;39;20043;-66
2021/06/11 02:20:04;;;;;;;40.10;28.95;;;;;;;15.29;100.00;101924.03;3607579;39;19957;-66
2021/06/11 02:22:30;;;;;;;41.53;28.35;;;;;;;15.24;100.00;101919.03;3608974;39;21218;-66
2021/06/11 02:24:57;;;;;;;44.38;30.67;;;;;;;15.20;100.00;101920.28;3607008;39;20063;-65
2021/06/11 02:27:23;;;;;;;43.30;30.38;;;;;;;15.19;100.00;101914.03;3609242;39;20064;-66
2021/06/11 02:29:49;;;;;;;38.72;27.95;;;;;;;15.21;100.00;101909.31;3608931;39;20054;-66
2021/06/11 02:32:16;;;;;;;39.95;29.10;;;;;;;15.24;100.00;101897.34;3608972;39;20333;-66
2021/06/11 02:34:42;;;;;;;36.63;26.40;;;;;;;15.26;100.00;101891.75;3607589;39;20051;-65
2021/06/11 02:37:09;;;;;;;40.40;29.90;;;;;;;15.25;100.00;101888.16;3608065;39;20299;-65
2021/06/11 02:39:35;;;;;;;38.58;28.08;;;;;;;15.24;100.00;101878.34;3607740;39;20657;-66
2021/06/11 02:42:04;;;;;;;40.75;29.63;;;;;;;15.21;100.00;101876.75;3607898;39;20127;-66
2021/06/11 02:44:33;;;;;;;36.97;26.07;;;;;;;15.24;100.00;101879.19;3605780;39;20046;-66
2021/06/11 02:47:03;;;;;;;41.15;29.83;;;;;;;15.26;100.00;101881.75;3609075;39;20077;-66
2021/06/11 02:49:34;;;;;;;41.05;30.17;;;;;;;15.06;100.00;101886.28;3608484;39;20127;-66
2021/06/11 02:52:05;;;;;;;42.75;30.08;;;;;;;15.02;100.00;101880.31;3609061;39;20050;-66
2021/06/11 02:54:36;;;;;;;39.90;27.63;;;;;;;14.81;100.00;101883.13;3607346;39;20069;-65
2021/06/11 02:57:05;;;;;;;42.60;29.17;;;;;;;14.89;100.00;101879.72;3608719;39;20475;-66
2021/06/11 02:59:31;;;;;;;;;;;;;;;14.88;100.00;101872.56;3607934;39;20328;-66
2021/06/11 03:02:02;;;;;;;43.03;28.77;;;;;;;14.82;100.00;101873.13;3608470;39;19935;-66
2021/06/11 03:04:30;;;;;;;41.30;28.95;;;;;;;14.86;100.00;101872.72;3607368;39;20607;-65
2021/06/11 03:06:58;;;;;;;42.95;28.83;;;;;;;14.97;100.00;101873.59;3608922;39;20370;-66
2021/06/11 03:09:26;;;;;;;40.65;28.80;;;;;;;14.79;100.00;101878.84;3607291;39;20051;-66
2021/06/11 03:11:56;;;;;;;45.70;28.60;;;;;;;14.68;100.00;101886.09;3609614;39;20056;-66
2021/06/11 03:14:24;;;;;;;40.33;29.27;;;;;;;14.65;100.00;101875.53;3606722;39;20083;-66
2021/06/11 03:16:55;;;;;;;47.20;29.35;;;;;;;14.69;100.00;101884.22;3608388;39;20426;-66
2021/06/11 03:19:25;;;;;;;43.13;29.60;;;;;;;14.76;100.00;101885.38;3608309;39;20059;-66
2021/06/11 03:21:54;;;;;;;;;;;;;;;14.66;100.00;101881.78;3609998;39;20302;-66
2021/06/11 03:24:25;;;;;;;42.95;28.80;;;;;;;14.63;100.00;101882.91;3608100;39;19935;-64
2021/06/11 03:26:56;;;;;;;43.42;28.80;;;;;;;14.73;100.00;101887.53;3608389;39;20075;-65
2021/06/11 03:29:30;;;;;;;44.25;28.92;;;;;;;14.77;100.00;101883.56;3607912;39;20035;-66
2021/06/11 03:31:59;;;;;;;39.70;26.63;;;;;;;14.70;100.00;101880.53;3608113;39;20111;-64
2021/06/11 03:34:27;;;;;;;42.95;28.67;;;;;;;14.65;100.00;101889.06;3607879;39;20163;-65
2021/06/11 03:36:56;;;;;;;40.08;29.20;;;;;;;14.74;100.00;101890.09;3607883;39;20051;-65
2021/06/11 03:39:26;;;;;;;43.40;30.38;;;;;;;14.73;100.00;101892.94;3607878;39;20140;-64
2021/06/11 03:41:53;;;;;;;44.30;30.40;;;;;;;14.73;100.00;101880.25;3608578;39;20044;-65
2021/06/11 03:44:22;;;;;;;48.03;32.17;;;;;;;14.85;100.00;101886.41;3606954;39;20050;-65
2021/06/11 03:46:49;;;;;;;;;;;;;;;14.92;100.00;101882.16;3608079;39;20061;-65
2021/06/11 03:49:19;;;;;;;47.60;31.48;;;;;;;14.87;100.00;101879.00;3607771;39;19931;-65
2021/06/11 03:51:46;;;;;;;63.40;38.70;;;;;;;14.70;100.00;101878.66;3607772;39;20050;-65
2021/06/11 03:54:16;;;;;;;58.50;37.00;;;;;;;14.77;100.00;101878.13;3605523;39;20043;-65
2021/06/11 03:56:43;;;;;;;65.65;39.90;;;;;;;14.83;100.00;101883.00;3607413;39;20102;-66
2021/06/11 03:59:13;;;;;;;59.03;37.50;;;;;;;15.00;100.00;101892.28;3608313;39;20039;-64
2021/06/11 04:01:45;;;;;;;60.42;37.88;;;;;;;14.98;100.00;101902.41;3607560;39;20073;-65
2021/06/11 04:04:11;;;;;;;56.58;35.55;;;;;;;15.16;100.00;101905.31;3607126;39;20048;-65
2021/06/11 04:06:39;;;;;;;57.42;36.80;;;;;;;15.10;100.00;101895.03;3608731;39;20050;-65
2021/06/11 04:09:07;;;;;;;55.95;36.85;;;;;;;15.21;100.00;101894.91;3607322;39;20040;-65
2021/06/11 04:11:37;;;;;;;57.65;37.20;;;;;;;15.12;100.00;101903.88;3607470;39;20303;-66
2021/06/11 04:14:04;;;;;;;64.35;38.17;;;;;;;14.94;100.00;101890.97;3606749;39;20058;-66
2021/06/11 04:16:37;;;;;;;60.70;38.13;;;;;;;14.97;100.00;101887.16;3607648;39;20445;-65
2021/06/11 04:19:09;;;;;;;67.68;42.08;;;;;;;15.07;100.00;101885.31;3607050;39;20043;-65
2021/06/11 04:21:35;;;;;;;68.53;41.55;;;;;;;15.19;100.00;101888.75;3606593;39;20351;-65
2021/06/11 04:24:37;;;;;;;61.17;39.22;;;;;;;15.19;100.00;101888.75;3643008;23;20051;-65
2021/06/11 04:27:06;;;;;;;64.78;39.25;;;;;;;15.22;100.00;101886.63;3566869;40;20129;-65
2021/06/11 04:29:33;;;;;;;61.73;40.47;;;;;;;15.29;100.00;101881.47;3566769;40;20045;-66
2021/06/11 04:31:59;;;;;;;59.95;39.38;;;;;;;15.40;100.00;101886.78;3566981;40;20393;-65
2021/06/11 04:34:27;;;;;;;59.85;37.03;;;;;;;15.56;100.00;101891.63;3566965;40;20049;-65
2021/06/11 04:36:54;;;;;;;51.60;33.97;;;;;;;15.47;100.00;101889.75;3568319;40;20049;-65
2021/06/11 04:39:21;;;;;;;53.50;35.90;;;;;;;15.63;100.00;101886.47;3569084;40;20057;-65
2021/06/11 04:41:47;;;;;;;57.88;36.60;;;;;;;15.76;100.00;101897.88;3569026;40;20047;-65
2021/06/11 04:44:13;;;;;;;52.88;35.88;;;;;;;15.72;100.00;101890.16;3568654;40;20134;-66
2021/06/11 04:46:40;;;;;;;59.72;36.83;;;;;;;15.87;100.00;101898.75;3568588;40;20059;-65
2021/06/11 04:49:07;;;;;;;50.40;32.95;;;;;;;15.87;100.00;101887.88;3569032;40;20069;-65
2021/06/11 04:51:35;;;;;;;58.00;34.55;;;;;;;16.51;100.00;101894.41;3569372;40;20057;-65
2021/06/11 04:54:01;;;;;;;54.65;36.05;;;;;;;16.93;100.00;101901.22;3568636;40;20061;-67
2021/06/11 04:56:28;;;;;;;52.83;35.50;;;;;;;17.06;100.00;101904.44;3569022;40;20060;-65
2021/06/11 04:58:55;;;;;;;51.92;35.20;;;;;;;17.14;100.00;101915.41;3567839;40;20054;-65
2021/06/11 05:01:22;;;;;;;51.03;34.95;;;;;;;17.29;100.00;101912.16;3567312;40;20062;-67
2021/06/11 05:03:48;;;;;;;49.00;33.85;;;;;;;18.54;100.00;101908.34;3569994;40;20057;-66
2021/06/11 05:06:14;;;;;;;46.35;31.17;;;;;;;19.76;100.00;101913.44;3568171;40;20037;-66
2021/06/11 05:08:42;;;;;;;49.65;32.88;;;;;;;19.95;100.00;101906.81;3568483;40;20047;-66
2021/06/11 05:11:08;;;;;;;53.40;35.80;;;;;;;18.34;100.00;101909.59;3568828;40;20048;-66
2021/06/11 05:13:34;;;;;;;48.08;33.10;;;;;;;17.54;100.00;101909.69;3568929;40;20041;-67
2021/06/11 05:16:00;;;;;;;50.53;35.50;;;;;;;17.26;100.00;101920.66;3567938;40;20642;-66
2021/06/11 05:18:27;;;;;;;50.50;35.63;;;;;;;17.15;100.00;101917.13;3568696;40;20041;-65
2021/06/11 05:20:53;;;;;;;54.47;36.78;;;;;;;16.97;100.00;101917.13;3568866;40;20057;-66
2021/06/11 05:23:19;;;;;;;56.05;35.30;;;;;;;17.05;100.00;101915.47;3567333;40;20061;-66
2021/06/11 05:25:47;;;;;;;58.55;38.03;;;;;;;17.17;100.00;101919.69;3568681;40;20355;-66
2021/06/11 05:28:14;;;;;;;52.05;37.40;;;;;;;17.25;100.00;101921.66;3568224;40;20045;-66
2021/06/11 05:30:40;;;;;;;53.78;36.95;;;;;;;17.57;100.00;101906.66;3568123;40;20033;-66
2021/06/11 05:33:06;;;;;;;50.80;36.20;;;;;;;17.61;100.00;101908.06;3561975;40;20045;-66
2021/06/11 05:35:32;;;;;;;58.40;38.13;;;;;;;17.61;100.00;101916.22;3568209;40;20060;-66
2021/06/11 05:38:02;;;;;;;56.20;37.63;;;;;;;17.43;100.00;101908.91;3568428;40;20392;-66
2021/06/11 05:40:28;;;;;;;57.95;37.58;;;;;;;17.38;100.00;101915.84;3567715;40;20099;-66
2021/06/11 05:42:55;;;;;;;53.42;35.78;;;;;;;17.68;100.00;101912.72;3569311;40;20051;-65
2021/06/11 05:45:21;;;;;;;48.60;33.72;;;;;;;17.78;100.00;101901.69;3567633;40;20069;-61
2021/06/11 05:47:48;;;;;;;44.47;30.80;;;;;;;18.13;100.00;101905.41;3568479;40;20059;-61
2021/06/11 05:50:14;;;;;;;50.72;34.42;;;;;;;17.86;100.00;101912.69;3568016;40;20049;-64
2021/06/11 05:52:40;;;;;;;46.80;34.22;;;;;;;17.99;100.00;101912.31;3568318;40;20045;-66
2021/06/11 05:55:07;;;;;;;46.55;33.05;;;;;;;17.52;100.00;101902.53;3567055;40;20049;-66
2021/06/11 05:57:33;;;;;;;49.75;33.50;;;;;;;17.43;100.00;101903.47;3568086;40;20435;-66
2021/06/11 06:00:01;;;;;;;47.45;33.85;;;;;;;17.71;100.00;101911.53;3568954;40;20037;-66
2021/06/11 06:02:27;;;;;;;49.90;33.45;;;;;;;17.88;100.00;101903.50;3568373;40;20134;-66
2021/06/11 06:04:53;;;;;;;49.28;32.28;;;;;;;18.31;100.00;101899.03;3566502;40;20363;-66
2021/06/11 06:07:20;;;;;;;49.08;32.88;;;;;;;18.04;100.00;101900.91;3567910;40;20056;-66
2021/06/11 06:09:46;;;;;;;44.03;31.48;;;;;;;18.10;100.00;101900.28;3565936;40;20066;-66
2021/06/11 06:12:12;;;;;;;45.05;32.13;;;;;;;18.17;100.00;101901.34;3567729;40;20045;-66
2021/06/11 06:14:38;;;;;;;42.70;31.42;;;;;;;18.26;100.00;101909.59;3566175;40;20138;-66
2021/06/11 06:17:06;;;;;;;39.63;28.92;;;;;;;18.48;100.00;101906.28;3567052;40;20093;-66
2021/06/11 06:19:32;;;;;;;40.88;30.60;;;;;;;18.58;100.00;101910.75;3567331;40;20062;-66
2021/06/11 06:21:58;;;;;;;38.58;28.45;;;;;;;18.70;100.00;101907.56;3567799;40;20084;-66
2021/06/11 06:24:24;;;;;;;38.20;28.00;;;;;;;18.76;100.00;101914.25;3568509;40;20045;-66
2021/06/11 06:26:50;;;;;;;40.00;28.75;;;;;;;18.62;100.00;101909.41;3657830;22;20051;-66
2021/06/11 06:29:16;;;;;;;38.22;29.23;;;;;;;18.73;100.00;101907.25;3607862;39;20040;-66
2021/06/11 06:31:42;;;;;;;40.28;28.70;;;;;;;18.90;100.00;101902.75;3609020;39;20152;-65
2021/06/11 06:34:10;;;;;;;38.42;27.95;;;;;;;18.72;100.00;101908.25;3607278;39;20062;-66
2021/06/11 06:36:36;;;;;;;40.55;28.42;;;;;;;19.25;100.00;101916.28;3607969;39;20047;-66
2021/06/11 06:39:06;;;;;;;31.95;23.48;;;;;;;19.52;100.00;101917.88;3608099;39;20039;-66
2021/06/11 06:41:33;;;;;;;33.00;24.85;;;;;;;19.67;100.00;101922.66;3608335;39;20055;-67
2021/06/11 06:43:59;;;;;;;33.13;24.42;;;;;;;19.88;100.00;101916.72;3608210;39;20425;-66
2021/06/11 06:46:25;;;;;;;37.72;26.13;;;;;;;19.50;100.00;101917.19;3608441;39;20043;-66
2021/06/11 06:48:53;;;;;;;35.45;26.35;;;;;;;19.70;100.00;101914.09;3608419;39;20064;-66
2021/06/11 06:51:23;;;;;;;35.30;25.38;;;;;;;19.88;100.00;101923.03;3608381;39;20070;-66
2021/06/11 06:53:49;;;;;;;35.40;24.88;;;;;;;20.23;100.00;101920.94;3608387;39;20067;-67
2021/06/11 06:56:15;;;;;;;33.25;23.75;;;;;;;20.51;100.00;101919.66;3607590;39;20054;-67
2021/06/11 06:58:42;;;;;;;36.90;25.50;;;;;;;19.93;100.00;101923.38;3607005;39;20055;-66
2021/06/11 07:01:08;;;;;;;36.38;26.75;;;;;;;20.07;100.00;101930.00;3607794;39;20051;-66
2021/06/11 07:03:36;;;;;;;38.10;27.98;;;;;;;19.97;100.00;101931.22;3608697;39;20050;-66
2021/06/11 07:06:02;;;;;;;36.97;27.23;;;;;;;20.18;100.00;101928.78;3608029;39;20367;-67
2021/06/11 07:08:31;;;;;;;31.95;24.85;;;;;;;19.99;100.00;101926.44;3607651;39;20065;-66
2021/06/11 07:10:57;;;;;;;33.20;24.13;;;;;;;20.41;100.00;101922.59;3608251;39;20051;-66
2021/06/11 07:13:23;;;;;;;31.95;24.23;;;;;;;20.34;100.00;101913.38;3608821;39;20056;-67
2021/06/11 07:15:49;;;;;;;32.08;24.13;;;;;;;19.91;100.00;101921.84;3607858;39;20108;-67
2021/06/11 07:18:15;;;;;;;33.67;25.38;;;;;;;20.01;100.00;101916.16;3606639;39;20326;-67
2021/06/11 07:20:41;;;;;;;34.92;25.60;;;;;;;20.12;100.00;101913.09;3607200;39;20110;-67
2021/06/11 07:23:07;;;;;;;32.05;23.65;;;;;;;20.36;100.00;101904.00;3606935;39;20043;-66
2021/06/11 07:25:35;;;;;;;33.75;24.85;;;;;;;20.23;100.00;101909.13;3607458;39;20239;-67
2021/06/11 07:28:01;;;;;;;34.63;23.85;;;;;;;20.22;100.00;101910.19;3607369;39;20330;-67
2021/06/11 07:30:27;;;;;;;29.30;21.63;;;;;;;20.66;100.00;101915.19;3606588;39;20147;-68
2021/06/11 07:32:53;;;;;;;29.75;21.77;;;;;;;20.23;100.00;101906.38;3606433;39;20437;-67
2021/06/11 07:35:20;;;;;;;31.38;22.65;;;;;;;20.06;100.00;101916.53;3605454;39;20043;-67
2021/06/11 07:37:46;;;;;;;31.35;22.55;;;;;;;20.14;100.00;101916.53;3608856;39;20048;-66
2021/06/11 07:40:13;;;;;;;29.98;23.13;;;;;;;20.27;100.00;101916.84;3607092;39;20325;-66
2021/06/11 07:42:41;;;;;;;31.15;21.95;;;;;;;20.37;100.00;101915.78;3608759;39;20061;-66
2021/06/11 07:45:09;;;;;;;28.88;21.33;;;;;;;20.06;100.00;101919.25;3606621;39;20656;-66
2021/06/11 07:47:35;;;;;;;28.95;22.98;;;;;;;20.01;100.00;101927.09;3605320;39;20441;-66
2021/06/11 07:50:02;;;;;;;24.23;19.35;;;;;;;20.30;100.00;101921.94;3608663;39;20418;-66
2021/06/11 07:52:31;;;;;;;22.45;17.75;;;;;;;20.79;100.00;101931.88;3606450;39;20118;-66
2021/06/11 07:54:57;;;;;;;25.80;19.83;;;;;;;20.25;100.00;101929.81;3606935;39;20083;-67
2021/06/11 08:00:01;;;;;;;24.85;19.00;;;;;;;20.29;100.00;101924.84;3619028;23;20048;-67
2021/06/11 08:02:27;;;;;;;26.83;19.85;;;;;;;20.22;100.00;101924.69;3607515;39;20083;-66
2021/06/11 08:04:53;;;;;;;24.95;19.10;;;;;;;19.82;100.00;101926.44;3606203;39;20063;-66
2021/06/11 08:07:19;;;;;;;22.30;17.83;;;;;;;20.08;100.00;101934.47;3607408;39;20043;-66
2021/06/11 08:09:45;;;;;;;28.25;20.27;;;;;;;19.96;100.00;101924.88;3606787;39;20063;-67
2021/06/11 08:12:13;;;;;;;29.27;20.00;;;;;;;19.99;100.00;101932.75;3605928;39;20298;-66
2021/06/11 08:14:39;;;;;;;27.13;18.77;;;;;;;20.40;100.00;101926.34;3609252;39;20448;-67
2021/06/11 08:17:06;;;;;;;24.05;16.98;;;;;;;20.61;100.00;101939.44;3608965;39;20047;-67
2021/06/11 08:19:32;;;;;;;24.90;17.70;;;;;;;20.93;100.00;101946.69;3608457;39;20071;-66
2021/06/11 08:21:58;;;;;;;29.08;20.23;;;;;;;20.14;100.00;101941.13;3606688;39;20132;-66
2021/06/11 08:24:24;;;;;;;25.58;18.40;;;;;;;20.94;100.00;101934.72;3608139;39;20053;-67
2021/06/11 08:26:50;;;;;;;26.27;18.45;;;;;;;20.85;100.00;101941.28;3608728;39;20048;-67
2021/06/11 08:29:16;;;;;;;27.08;18.83;;;;;;;20.91;100.00;101943.28;3608729;39;20051;-67
2021/06/11 08:31:44;;;;;;;25.42;18.13;;;;;;;21.20;100.00;101944.53;3608627;39;20055;-67
2021/06/11 08:34:11;;;;;;;23.30;16.60;;;;;;;21.42;100.00;101942.84;3607223;39;20046;-67
2021/06/11 08:36:37;;;;;;;27.17;18.48;;;;;;;21.23;100.00;101946.03;3607353;39;20078;-67
2021/06/11 08:39:04;;;;;;;26.63;18.73;;;;;;;21.22;100.00;101942.44;3607433;39;20051;-67
2021/06/11 08:41:31;;;;;;;27.70;18.75;;;;;;;21.04;100.00;101945.47;3608237;39;20422;-67
2021/06/11 08:43:58;;;;;;;25.50;17.60;;;;;;;21.30;100.00;101938.78;3607728;39;20412;-68
2021/06/11 08:46:26;;;;;;;23.83;17.20;;;;;;;21.87;100.00;101932.06;3605094;39;20055;-67
2021/06/11 08:48:52;;;;;;;28.42;19.90;;;;;;;21.36;100.00;101929.84;3605193;39;20050;-68
2021/06/11 08:51:20;;;;;;;27.40;18.55;;;;;;;21.74;100.00;101929.94;3606904;39;20035;-68
2021/06/11 08:53:46;;;;;;;31.92;19.95;;;;;;;22.03;100.00;101929.16;3604658;39;20129;-68
2021/06/11 08:56:12;;;;;;;34.47;21.08;;;;;;;21.75;100.00;101919.84;3608799;39;20047;-68
2021/06/11 08:58:39;;;;;;;28.40;19.23;;;;;;;22.33;100.00;101918.25;3608320;39;20387;-68
2021/06/11 09:01:05;;;;;;;36.47;21.38;;;;;;;21.93;100.00;101917.63;3607912;39;20051;-68
2021/06/11 09:03:42;;;;;;;30.02;20.08;;;;;;;22.10;100.00;101922.94;3607813;39;20043;-68
2021/06/11 09:06:12;;;;;;;34.67;22.00;;;;;;;21.73;100.00;101927.38;3607109;39;20043;-69
2021/06/11 09:08:40;;;;;;;39.88;22.98;;;;;;;21.27;100.00;101931.78;3605874;39;20582;-68
2021/06/11 09:11:12;;;;;;;40.17;21.77;;;;;;;21.93;100.00;101923.09;3606403;39;20118;-69
2021/06/11 09:13:40;;;;;;;31.58;20.63;;;;;;;22.14;100.00;101913.31;3607585;39;20095;-70
2021/06/11 09:16:09;;;;;;;37.53;21.95;;;;;;;21.91;100.00;101911.47;3607769;39;20116;-67
2021/06/11 09:18:46;;;;;;;37.80;22.35;;;;;;;21.86;100.00;101912.03;3607280;39;20320;-70
2021/06/11 09:21:30;;;;;;;36.75;21.70;;;;;;;22.13;100.00;101919.81;3607622;39;20556;-68
2021/06/11 09:24:23;;;;;;;32.30;21.25;;;;;;;22.19;100.00;101910.88;3609112;39;20127;-68
2021/06/11 09:27:10;;;;;;;33.75;21.25;;;;;;;21.80;100.00;101920.13;3606335;39;20422;-68
2021/06/11 09:29:41;;;;;;;31.15;21.48;;;;;;;22.59;100.00;101911.47;3607218;39;20430;-68
2021/06/11 09:32:19;;;;;;;29.80;19.27;;;;;;;22.59;100.00;101911.47;3605349;39;20114;-68
2021/06/11 09:34:46;;;;;;;37.05;21.92;;;;;;;22.66;100.00;101911.53;3607538;39;20690;-68
2021/06/11 09:37:14;;;;;;;33.65;22.17;;;;;;;22.43;100.00;101906.19;3608286;39;20063;-66
2021/06/11 09:39:48;;;;;;;30.45;21.73;;;;;;;22.85;100.00;101913.72;3608470;39;20032;-66
2021/06/11 09:42:16;;;;;;;30.48;20.40;;;;;;;22.98;100.00;101913.03;3606503;39;20055;-68
2021/06/11 09:44:53;;;;;;;30.08;19.63;;;;;;;23.30;100.00;101924.59;3608246;39;20035;-68
2021/06/11 09:47:31;;;;;;;29.33;18.65;;;;;;;22.57;100.00;101913.56;3608023;39;20332;-67
2021/06/11 09:50:03;;;;;;;34.17;20.77;;;;;;;22.80;100.00;101912.56;3607754;39;20050;-69
2021/06/11 09:52:34;;;;;;;28.60;19.13;;;;;;;23.40;100.00;101908.63;3608538;39;20047;-67
2021/06/11 09:55:04;;;;;;;35.17;21.17;;;;;;;23.19;100.00;101911.34;3608943;39;20046;-67
2021/06/11 09:57:33;;;;;;;31.23;18.90;;;;;;;23.64;100.00;101909.28;3608335;39;20188;-66
2021/06/11 10:00:00;;;;;;;31.30;18.77;;;;;;;24.30;100.00;101910.88;3607983;39;20047;-67
2021/06/11 10:02:26;;;;;;;29.73;20.65;;;;;;;23.83;100.00;101913.25;3608888;39;20063;-68
2021/06/11 10:04:54;;;;;;;30.00;18.63;;;;;;;23.36;100.00;101914.72;3608305;39;20087;-67
2021/06/11 10:07:20;;;;;;;31.90;19.80;;;;;;;23.81;100.00;101920.88;3607685;39;20451;-66
2021/06/11 10:09:46;;;;;;;30.17;20.08;;;;;;;23.96;100.00;101915.31;3608058;39;20050;-67
2021/06/11 10:12:14;;;;;;;28.95;19.00;;;;;;;24.21;100.00;101909.34;3607163;39;20043;-66
2021/06/11 10:14:40;;;;;;;29.15;20.13;;;;;;;24.20;100.00;101915.91;3606752;39;20337;-67
2021/06/11 10:17:06;;;;;;;27.85;20.52;;;;;;;23.77;100.00;101917.63;3607766;39;20330;-67
2021/06/11 10:19:32;;;;;;;27.40;20.10;;;;;;;24.44;100.00;101918.16;3605150;39;20054;-67
2021/06/11 10:22:00;;;;;;;32.35;21.90;;;;;;;24.14;100.00;101910.16;3608422;39;20071;-67
2021/06/11 10:24:27;;;;;;;28.77;20.83;;;;;;;24.02;100.00;101909.00;3605108;39;20458;-67
2021/06/11 10:26:53;;;;;;;31.15;21.80;;;;;;;23.94;100.00;101920.16;3607629;39;20340;-67
2021/06/11 10:29:22;;;;;;;30.60;21.35;;;;;;;23.54;100.00;101906.03;3607717;39;20055;-67
2021/06/11 10:31:48;;;;;;;31.02;22.85;;;;;;;23.10;100.00;101916.16;3608601;39;20057;-66
2021/06/11 10:34:14;;;;;;;30.48;21.95;;;;;;;23.49;100.00;101927.75;3606152;39;20053;-67
2021/06/11 10:36:43;;;;;;;30.52;21.05;;;;;;;24.10;100.00;101919.84;3606601;39;20047;-67
2021/06/11 10:39:26;;;;;;;32.25;20.73;;;;;;;24.46;100.00;101916.06;3605157;39;20079;-67
2021/06/11 10:42:08;;;;;;;31.08;22.33;;;;;;;24.99;100.00;101912.72;3607698;39;20056;-67
2021/06/11 10:44:38;;;;;;;31.13;21.70;;;;;;;25.38;100.00;101907.53;3606100;39;20043;-67
2021/06/11 10:47:24;;;;;;;30.77;24.08;;;;;;;24.37;100.00;101909.03;3605552;39;20058;-67
2021/06/11 10:50:05;;;;;;;37.83;25.05;;;;;;;24.35;100.00;101904.78;3605838;39;20358;-67
2021/06/11 10:52:33;;;;;;;32.72;24.23;;;;;;;24.54;100.00;101892.19;3604414;39;20055;-66
2021/06/11 10:55:45;;;;;;;32.50;24.07;;;;;;;24.94;100.00;101908.88;3604993;39;20057;-68
2021/06/11 10:58:31;;;;;;;29.95;23.23;;;;;;;25.72;100.00;101900.16;3603966;39;20273;-70
2021/06/11 11:00:58;;;;;;;31.92;23.88;;;;;;;25.16;100.00;101896.69;3604523;39;20490;-69
2021/06/11 11:03:32;;;;;;;31.48;23.45;;;;;;;25.01;100.00;101890.47;3606150;39;20057;-68
2021/06/11 11:06:34;;;;;;;34.60;24.20;;;;;;;25.31;100.00;101892.94;3595864;39;20060;-67
2021/06/11 11:09:06;;;;;;;43.33;27.63;;;;;;;24.59;100.00;101890.53;3601276;39;20375;-65
2021/06/11 11:11:38;;;;;;;35.95;24.83;;;;;;;25.11;100.00;101888.19;3604030;39;20113;-67